Clearfield, PA

5:01 PM EST on January 24, 2017 (GMT -0500)
Clearfield | | Change Station

Elev 1127 ft 41.02 °N, 78.46 °W | Updated 46 seconds ago

Overcast
Overcast
36.2 °F
Feels Like 36 °F
N
3.0
Wind Variable Wind from NW
Gusts 4.0 mph

Today
High -- | Low -- °F
--% Chance of Precip.
Yesterday
High -- | Low -- °F
Precip. -- in
Pressure 29.65 in
Visibility 8.0 miles
Clouds Overcast 400 ft
Windchill 36 °F
Dew Point 34 °F
Humidity 90%
Rainfall 0.07 in
Snow Depth Not available.
7:31 AM 5:21 PM
Waning Crescent, 9% visible
METAR KDUJ 242153Z AUTO 29012G20KT 8SM OVC004 01/M02 A2961 RMK AO2 SLP040 T00061017
Pressure 29.65 in
Visibility 8.0 miles
Clouds Overcast 400 ft
Windchill 36 °F
Dew Point 34 °F
Humidity 90%
Rainfall 0.07 in
Snow Depth Not available.
7:31 AM 5:21 PM
Waning Crescent, 9% visible
METAR KDUJ 242153Z AUTO 29012G20KT 8SM OVC004 01/M02 A2961 RMK AO2 SLP040 T00061017

Get Your Daily Forecast Email!

Thanks for signing up!

Be on the lookout for a verification email in your inbox.

You'll start receiving the daily forecast at 8 AM.

×

10-Day Weather Forecast

Almanac

Astronomy

Jan. 24, 2017 Rise Set
Actual Time
Civil Twilight
Nautical Twilight
Astronomical Twilight
Moon
Length of Visible Light
Length of Day
Tomorrow will be .
, % of the Moon is Illuminated

Today's Extremes

State Highs State Lows

Community

WunderPhotos

Upload Photos

1,962,540 photos uploaded!

WunderBlog® & News

Nearby

Air Quality

  Air Quality AQ Index Pollutant
Not available.

Snow Depth

Station Depth Elevation

Earthquake Activity

City Distance Mag. Time & Date
Minimum magnitude displayed is 2.5.

Coastal Water Temperatures

Place Temperature

Stations

Nearby Weather Stations

Station Location Temp. Windchill Dew Point Humidity Wind Precip. Elev Updated Type
                   

Watches & Warnings

There are currently no watches in effect.